LGKR/CFU METAR and TAF weather

Enter ICAO airport designator
Station Type Date Time Source
LGKR METAR 2021/09/23 17:50 UTC NOAA

LGKR 231750Z 24004KT CAVOK 21/10 Q1016 NOSIG


Station Type Date Time Source
LGKR Decoded METAR 2021/09/23 17:50 UTC NOAA

Kerkyra Airport , Greece (LGKR) 39-37N 019-55E 4M
Sep 23, 2021 - 01:50 PM EDT / 2021.09.23 1750 UTC
Wind: from the WSW (240 degrees) at 5 MPH (4 KT):0
Visibility: greater than 7 mile(s):0
Temperature: 69 F (21 C)
Dew Point: 50 F (10 C)
Relative Humidity: 49%
Pressure (altimeter): 30.00 in. Hg (1016 hPa)
ob: LGKR 231750Z 24004KT CAVOK 21/10 Q1016 NOSIG
cycle: 18

Station Type Date Time Source
LGKR TAF 2021/09/23 18:27 UTC NOAA

TAF LGKR 231700Z 2318/2418 30010KT 9999 FEW020
BECMG 2402/2404 12010KT

Example: see airport list